METAR AND TAF INFORMATION
METAR FOR EKVG
ADDS - METARS form results

(1011 UTC 21 January 2018)
Data provider http://aviationweather.gov/adds/metars/
 
METAR text: EKVG 210950Z AUTO 10014KT 9999NDV NCD 01/M03 Q1006 RMK FEW210/// WIND 850FT 12020KT
Conditions at: EKVG (SORVAAG/VAGAR , DK) observed 0950 UTC 21 January 2018
Temperature: 1.0°C (34°F)
Dewpoint: -3.0°C (27°F) [RH = 75%]
Pressure (altimeter): 29.70 inches Hg (1006.0 mb)
Winds: from the E (100 degrees) at 16 MPH (14 knots; 7.3 m/s)
Visibility: missing
Ceiling: at least 12,000 feet AGL
Clouds: sky clear below 12,000 feet AGL
Weather: no significant weather observed at this time

METAR text: EKVG 210920Z AUTO 11011KT 9999NDV FEW024/// M02/M04 Q1007 RMK FEW025/// SCT220/// WIND 850FT 13019KT
Conditions at: EKVG (SORVAAG/VAGAR , DK) observed 0920 UTC 21 January 2018
Temperature: -2.0°C (28°F)
Dewpoint: -4.0°C (25°F) [RH = 86%]
Pressure (altimeter): 29.73 inches Hg (1007.0 mb)
Winds: from the ESE (110 degrees) at 13 MPH (11 knots; 5.7 m/s)
Visibility: missing
Ceiling: at least 12,000 feet AGL
Clouds: few clouds at 2400 feet AGL
Weather: no significant weather observed at this time

Forecast for: EKVG (SORVAAG/VAGAR , DK)
Text: TAF EKVG 210824Z 2109/2118 11010KT 9999 SCT030
Forecast period: 0900 to 1000 UTC 21 January 2018
Forecast type: FROM: standard forecast or significant change
Winds: from the ESE (110 degrees) at 12 MPH (10 knots; 5.2 m/s)
Visibility: 6 or more miles (10+ km)
Clouds: scattered clouds at 3000 feet AGL
Weather: no significant weather forecast for this period
Text: BECMG 2110/2113 11020KT
Forecast period: 1000 to 1800 UTC 21 January 2018
Forecast type: BECOMING: Conditions expected to become as follows by 1300 UTC 21 January 2018
Winds: from the ESE (110 degrees) at 23 MPH (20 knots; 10.4 m/s)
Visibility: 6 or more miles (10+ km)
Clouds: scattered clouds at 3000 feet AGL
Weather: no significant weather forecast for this period

 AIRPORT MAP

 RUNWAY INFORMATION
Runway 13 Runway length 5902 ft Runway width 98 ft
Runway elevation 268 ft Runway displaced threshold 0 ft Runway heading 118
Runway 31 Runway length 5902 ft Runway width 98 ft
Runway elevation 252 ft Runway displaced threshold 0 ft Runway heading 298

 AIRPORT FREQUENCIES
Type AFIS Name AFIS Frequency 124.85 MHZ

 AIRPORT NEAR NAVIGATION AIDS
Type NDB Name Myggenes Frequency 337 KHZ
Type NDB Name Nolso Frequency 404 KHZ
Type NDB Name Vagar Frequency 348 KHZ



v2.6.1